sensor_id;sensor_type;location;lat;lon;timestamp;P1;durP1;ratioP1;P2;durP2;ratioP2
82952;SDS011;74888;40.196;44.560;2023-12-28T00:04:17;27.73;;;9.93;;
82952;SDS011;74888;40.196;44.560;2023-12-28T00:06:45;23.20;;;9.57;;
82952;SDS011;74888;40.196;44.560;2023-12-28T00:09:15;26.17;;;9.82;;
82952;SDS011;74888;40.196;44.560;2023-12-28T00:11:40;24.77;;;10.45;;
82952;SDS011;74888;40.196;44.560;2023-12-28T00:19:06;25.30;;;11.52;;
82952;SDS011;74888;40.196;44.560;2023-12-28T00:21:32;27.13;;;9.73;;
82952;SDS011;74888;40.196;44.560;2023-12-28T00:23:58;20.40;;;9.13;;
82952;SDS011;74888;40.196;44.560;2023-12-28T00:26:24;26.55;;;10.00;;
82952;SDS011;74888;40.196;44.560;2023-12-28T00:28:49;27.30;;;10.73;;
82952;SDS011;74888;40.196;44.560;2023-12-28T00:31:15;34.63;;;12.73;;
82952;SDS011;74888;40.196;44.560;2023-12-28T00:33:41;26.20;;;9.70;;
82952;SDS011;74888;40.196;44.560;2023-12-28T00:36:07;32.63;;;10.82;;
82952;SDS011;74888;40.196;44.560;2023-12-28T00:41:09;30.73;;;11.52;;
82952;SDS011;74888;40.196;44.560;2023-12-28T00:46:05;32.55;;;11.65;;
82952;SDS011;74888;40.196;44.560;2023-12-28T00:48:34;29.27;;;11.48;;
82952;SDS011;74888;40.196;44.560;2023-12-28T00:50:59;28.98;;;10.07;;
82952;SDS011;74888;40.196;44.560;2023-12-28T00:53:26;18.17;;;9.07;;
82952;SDS011;74888;40.196;44.560;2023-12-28T00:55:54;32.72;;;10.63;;
82952;SDS011;74888;40.196;44.560;2023-12-28T01:01:00;25.50;;;10.10;;
82952;SDS011;74888;40.196;44.560;2023-12-28T01:03:26;27.98;;;10.95;;
82952;SDS011;74888;40.196;44.560;2023-12-28T01:05:52;27.75;;;10.52;;
82952;SDS011;74888;40.196;44.560;2023-12-28T01:08:19;24.80;;;9.95;;
82952;SDS011;74888;40.196;44.560;2023-12-28T01:10:45;26.38;;;10.10;;
82952;SDS011;74888;40.196;44.560;2023-12-28T01:13:10;31.58;;;10.63;;
82952;SDS011;74888;40.196;44.560;2023-12-28T01:15:36;33.05;;;11.50;;
82952;SDS011;74888;40.196;44.560;2023-12-28T01:18:08;34.85;;;12.38;;
82952;SDS011;74888;40.196;44.560;2023-12-28T01:20:34;31.65;;;12.30;;
82952;SDS011;74888;40.196;44.560;2023-12-28T01:23:02;32.45;;;11.90;;
82952;SDS011;74888;40.196;44.560;2023-12-28T01:25:28;35.65;;;12.55;;
82952;SDS011;74888;40.196;44.560;2023-12-28T01:30:27;32.75;;;12.20;;
82952;SDS011;74888;40.196;44.560;2023-12-28T01:32:53;31.67;;;11.55;;
82952;SDS011;74888;40.196;44.560;2023-12-28T01:35:19;29.77;;;12.48;;
82952;SDS011;74888;40.196;44.560;2023-12-28T01:37:46;38.15;;;13.35;;
82952;SDS011;74888;40.196;44.560;2023-12-28T01:40:15;31.55;;;12.18;;
82952;SDS011;74888;40.196;44.560;2023-12-28T01:42:44;34.85;;;11.23;;
82952;SDS011;74888;40.196;44.560;2023-12-28T01:45:10;31.70;;;11.55;;
82952;SDS011;74888;40.196;44.560;2023-12-28T01:47:37;33.97;;;9.75;;
82952;SDS011;74888;40.196;44.560;2023-12-28T01:50:05;28.17;;;11.60;;
82952;SDS011;74888;40.196;44.560;2023-12-28T01:52:37;26.35;;;9.45;;
82952;SDS011;74888;40.196;44.560;2023-12-28T01:57:31;31.75;;;8.88;;
82952;SDS011;74888;40.196;44.560;2023-12-28T01:59:56;20.90;;;8.90;;
82952;SDS011;74888;40.196;44.560;2023-12-28T02:02:26;24.63;;;8.27;;
82952;SDS011;74888;40.196;44.560;2023-12-28T02:04:52;24.85;;;8.68;;
82952;SDS011;74888;40.196;44.560;2023-12-28T02:07:18;25.35;;;9.82;;
82952;SDS011;74888;40.196;44.560;2023-12-28T02:09:46;21.92;;;8.60;;
82952;SDS011;74888;40.196;44.560;2023-12-28T02:12:12;22.52;;;7.65;;
82952;SDS011;74888;40.196;44.560;2023-12-28T02:14:39;19.23;;;8.13;;
82952;SDS011;74888;40.196;44.560;2023-12-28T02:19:55;21.77;;;8.55;;
82952;SDS011;74888;40.196;44.560;2023-12-28T02:25:11;27.58;;;11.18;;
82952;SDS011;74888;40.196;44.560;2023-12-28T02:27:44;28.90;;;11.98;;
82952;SDS011;74888;40.196;44.560;2023-12-28T02:30:17;27.65;;;11.73;;
82952;SDS011;74888;40.196;44.560;2023-12-28T02:32:49;23.45;;;10.25;;
82952;SDS011;74888;40.196;44.560;2023-12-28T02:35:23;24.00;;;9.80;;
82952;SDS011;74888;40.196;44.560;2023-12-28T02:37:55;21.33;;;9.77;;
82952;SDS011;74888;40.196;44.560;2023-12-28T02:40:24;24.88;;;10.77;;
82952;SDS011;74888;40.196;44.560;2023-12-28T02:42:51;32.30;;;12.68;;
82952;SDS011;74888;40.196;44.560;2023-12-28T02:45:19;41.30;;;14.27;;
82952;SDS011;74888;40.196;44.560;2023-12-28T02:47:45;36.20;;;15.35;;
82952;SDS011;74888;40.196;44.560;2023-12-28T02:50:11;35.25;;;16.33;;
82952;SDS011;74888;40.196;44.560;2023-12-28T02:52:36;37.28;;;16.20;;
82952;SDS011;74888;40.196;44.560;2023-12-28T02:57:39;40.60;;;19.33;;
82952;SDS011;74888;40.196;44.560;2023-12-28T03:00:06;34.97;;;18.02;;
82952;SDS011;74888;40.196;44.560;2023-12-28T03:02:42;35.63;;;16.55;;
82952;SDS011;74888;40.196;44.560;2023-12-28T03:05:12;39.58;;;17.52;;
82952;SDS011;74888;40.196;44.560;2023-12-28T03:07:37;39.17;;;19.30;;
82952;SDS011;74888;40.196;44.560;2023-12-28T03:10:05;35.83;;;17.10;;
82952;SDS011;74888;40.196;44.560;2023-12-28T03:12:33;28.00;;;13.68;;
82952;SDS011;74888;40.196;44.560;2023-12-28T03:15:01;31.50;;;13.63;;
82952;SDS011;74888;40.196;44.560;2023-12-28T03:17:26;28.42;;;12.57;;
82952;SDS011;74888;40.196;44.560;2023-12-28T03:19:56;24.80;;;11.93;;
82952;SDS011;74888;40.196;44.560;2023-12-28T03:22:24;28.73;;;12.88;;
82952;SDS011;74888;40.196;44.560;2023-12-28T03:24:59;29.30;;;12.15;;
82952;SDS011;74888;40.196;44.560;2023-12-28T03:27:26;26.48;;;12.23;;
82952;SDS011;74888;40.196;44.560;2023-12-28T03:29:52;23.58;;;12.32;;
82952;SDS011;74888;40.196;44.560;2023-12-28T03:32:19;32.53;;;14.80;;
82952;SDS011;74888;40.196;44.560;2023-12-28T03:34:47;33.90;;;15.50;;
82952;SDS011;74888;40.196;44.560;2023-12-28T03:37:14;35.97;;;15.35;;
82952;SDS011;74888;40.196;44.560;2023-12-28T03:39:40;37.00;;;15.00;;
82952;SDS011;74888;40.196;44.560;2023-12-28T03:44:45;28.55;;;14.55;;
82952;SDS011;74888;40.196;44.560;2023-12-28T03:47:12;30.52;;;14.45;;
82952;SDS011;74888;40.196;44.560;2023-12-28T03:49:38;28.05;;;14.55;;
82952;SDS011;74888;40.196;44.560;2023-12-28T03:54:33;31.75;;;14.55;;
82952;SDS011;74888;40.196;44.560;2023-12-28T03:57:00;27.58;;;13.35;;
82952;SDS011;74888;40.196;44.560;2023-12-28T03:59:25;24.23;;;12.70;;
82952;SDS011;74888;40.196;44.560;2023-12-28T04:01:57;32.33;;;17.15;;
82952;SDS011;74888;40.196;44.560;2023-12-28T04:04:23;27.67;;;14.23;;
82952;SDS011;74888;40.196;44.560;2023-12-28T04:06:49;26.20;;;12.25;;
82952;SDS011;74888;40.196;44.560;2023-12-28T04:09:21;24.63;;;11.93;;
82952;SDS011;74888;40.196;44.560;2023-12-28T04:11:46;27.13;;;11.15;;
82952;SDS011;74888;40.196;44.560;2023-12-28T04:14:12;20.00;;;9.90;;
82952;SDS011;74888;40.196;44.560;2023-12-28T04:16:38;23.60;;;10.50;;
82952;SDS011;74888;40.196;44.560;2023-12-28T04:19:04;17.35;;;7.78;;
82952;SDS011;74888;40.196;44.560;2023-12-28T04:21:32;16.58;;;7.18;;
82952;SDS011;74888;40.196;44.560;2023-12-28T04:23:58;14.63;;;7.28;;
82952;SDS011;74888;40.196;44.560;2023-12-28T04:26:25;14.15;;;7.63;;
82952;SDS011;74888;40.196;44.560;2023-12-28T04:28:51;19.50;;;10.55;;
82952;SDS011;74888;40.196;44.560;2023-12-28T04:31:18;22.90;;;10.45;;
82952;SDS011;74888;40.196;44.560;2023-12-28T04:33:43;19.23;;;9.38;;
82952;SDS011;74888;40.196;44.560;2023-12-28T04:36:09;25.02;;;9.88;;
82952;SDS011;74888;40.196;44.560;2023-12-28T04:41:04;16.98;;;8.45;;
82952;SDS011;74888;40.196;44.560;2023-12-28T04:43:31;16.73;;;9.00;;
82952;SDS011;74888;40.196;44.560;2023-12-28T04:46:01;17.88;;;8.50;;
82952;SDS011;74888;40.196;44.560;2023-12-28T04:48:30;15.18;;;8.77;;
82952;SDS011;74888;40.196;44.560;2023-12-28T04:50:56;19.15;;;8.13;;
82952;SDS011;74888;40.196;44.560;2023-12-28T04:55:58;24.65;;;11.32;;
82952;SDS011;74888;40.196;44.560;2023-12-28T04:58:24;20.02;;;9.10;;
82952;SDS011;74888;40.196;44.560;2023-12-28T05:00:50;26.20;;;11.57;;
82952;SDS011;74888;40.196;44.560;2023-12-28T05:03:16;42.58;;;14.70;;
82952;SDS011;74888;40.196;44.560;2023-12-28T05:05:42;37.63;;;14.50;;
82952;SDS011;74888;40.196;44.560;2023-12-28T05:08:08;34.72;;;15.18;;
82952;SDS011;74888;40.196;44.560;2023-12-28T05:10:33;41.85;;;18.20;;
82952;SDS011;74888;40.196;44.560;2023-12-28T05:12:59;43.15;;;17.13;;
82952;SDS011;74888;40.196;44.560;2023-12-28T05:15:25;42.55;;;16.17;;
82952;SDS011;74888;40.196;44.560;2023-12-28T05:17:50;39.72;;;15.55;;
82952;SDS011;74888;40.196;44.560;2023-12-28T05:20:16;40.67;;;16.23;;
82952;SDS011;74888;40.196;44.560;2023-12-28T05:22:42;40.20;;;15.55;;
82952;SDS011;74888;40.196;44.560;2023-12-28T05:25:08;41.45;;;16.33;;
82952;SDS011;74888;40.196;44.560;2023-12-28T05:27:34;44.42;;;18.48;;
82952;SDS011;74888;40.196;44.560;2023-12-28T05:30:00;42.60;;;17.88;;
82952;SDS011;74888;40.196;44.560;2023-12-28T05:32:25;28.70;;;13.18;;
82952;SDS011;74888;40.196;44.560;2023-12-28T05:34:51;20.83;;;10.57;;
82952;SDS011;74888;40.196;44.560;2023-12-28T05:37:17;24.27;;;9.90;;
82952;SDS011;74888;40.196;44.560;2023-12-28T05:39:43;19.60;;;8.95;;
82952;SDS011;74888;40.196;44.560;2023-12-28T05:42:09;17.75;;;8.75;;
82952;SDS011;74888;40.196;44.560;2023-12-28T05:44:40;16.83;;;7.78;;
82952;SDS011;74888;40.196;44.560;2023-12-28T05:47:07;15.63;;;7.70;;
82952;SDS011;74888;40.196;44.560;2023-12-28T05:49:33;16.55;;;7.97;;
82952;SDS011;74888;40.196;44.560;2023-12-28T05:51:59;19.45;;;9.20;;
82952;SDS011;74888;40.196;44.560;2023-12-28T05:56:53;20.65;;;8.38;;
82952;SDS011;74888;40.196;44.560;2023-12-28T05:59:21;15.27;;;7.25;;
82952;SDS011;74888;40.196;44.560;2023-12-28T06:01:47;21.63;;;9.98;;
82952;SDS011;74888;40.196;44.560;2023-12-28T06:04:14;36.92;;;15.38;;
82952;SDS011;74888;40.196;44.560;2023-12-28T06:06:39;22.45;;;10.23;;
82952;SDS011;74888;40.196;44.560;2023-12-28T06:09:05;28.80;;;11.98;;
82952;SDS011;74888;40.196;44.560;2023-12-28T06:11:31;23.95;;;9.93;;
82952;SDS011;74888;40.196;44.560;2023-12-28T06:13:56;18.65;;;9.30;;
82952;SDS011;74888;40.196;44.560;2023-12-28T06:19:02;18.55;;;8.43;;
82952;SDS011;74888;40.196;44.560;2023-12-28T06:21:27;16.50;;;7.53;;
82952;SDS011;74888;40.196;44.560;2023-12-28T06:23:55;16.42;;;7.60;;
82952;SDS011;74888;40.196;44.560;2023-12-28T06:26:22;19.70;;;8.82;;
82952;SDS011;74888;40.196;44.560;2023-12-28T06:28:48;17.13;;;7.07;;
82952;SDS011;74888;40.196;44.560;2023-12-28T06:31:14;16.80;;;6.85;;
82952;SDS011;74888;40.196;44.560;2023-12-28T06:33:40;19.08;;;8.80;;
82952;SDS011;74888;40.196;44.560;2023-12-28T06:36:07;27.17;;;7.63;;
82952;SDS011;74888;40.196;44.560;2023-12-28T06:38:33;23.25;;;7.13;;
82952;SDS011;74888;40.196;44.560;2023-12-28T06:40:59;19.63;;;6.90;;
82952;SDS011;74888;40.196;44.560;2023-12-28T06:43:25;18.92;;;7.82;;
82952;SDS011;74888;40.196;44.560;2023-12-28T06:45:51;17.05;;;7.95;;
82952;SDS011;74888;40.196;44.560;2023-12-28T06:48:17;18.98;;;8.65;;
82952;SDS011;74888;40.196;44.560;2023-12-28T06:50:43;26.38;;;10.60;;
82952;SDS011;74888;40.196;44.560;2023-12-28T06:53:09;19.25;;;8.75;;
82952;SDS011;74888;40.196;44.560;2023-12-28T06:55:34;22.30;;;11.15;;
82952;SDS011;74888;40.196;44.560;2023-12-28T06:58:00;15.90;;;7.47;;
82952;SDS011;74888;40.196;44.560;2023-12-28T07:00:27;20.27;;;7.60;;
82952;SDS011;74888;40.196;44.560;2023-12-28T07:03:00;19.08;;;8.60;;
82952;SDS011;74888;40.196;44.560;2023-12-28T07:05:26;18.25;;;7.75;;
82952;SDS011;74888;40.196;44.560;2023-12-28T07:10:28;19.15;;;7.55;;
82952;SDS011;74888;40.196;44.560;2023-12-28T07:12:54;19.70;;;8.40;;
82952;SDS011;74888;40.196;44.560;2023-12-28T07:15:19;17.38;;;7.65;;
82952;SDS011;74888;40.196;44.560;2023-12-28T07:17:45;14.40;;;7.50;;
82952;SDS011;74888;40.196;44.560;2023-12-28T07:20:11;21.27;;;8.07;;
82952;SDS011;74888;40.196;44.560;2023-12-28T07:22:37;19.73;;;7.57;;
82952;SDS011;74888;40.196;44.560;2023-12-28T07:25:04;18.55;;;7.10;;
82952;SDS011;74888;40.196;44.560;2023-12-28T07:27:32;18.98;;;7.95;;
82952;SDS011;74888;40.196;44.560;2023-12-28T07:30:02;21.88;;;8.40;;
82952;SDS011;74888;40.196;44.560;2023-12-28T07:32:31;21.60;;;9.40;;
82952;SDS011;74888;40.196;44.560;2023-12-28T07:34:57;21.20;;;9.00;;
82952;SDS011;74888;40.196;44.560;2023-12-28T07:37:26;18.10;;;7.97;;
82952;SDS011;74888;40.196;44.560;2023-12-28T07:39:52;21.27;;;8.30;;
82952;SDS011;74888;40.196;44.560;2023-12-28T07:42:18;24.00;;;9.55;;
82952;SDS011;74888;40.196;44.560;2023-12-28T07:44:44;39.97;;;13.35;;
82952;SDS011;74888;40.196;44.560;2023-12-28T07:47:10;29.98;;;13.35;;
82952;SDS011;74888;40.196;44.560;2023-12-28T07:49:40;22.63;;;9.00;;
82952;SDS011;74888;40.196;44.560;2023-12-28T07:52:08;30.33;;;8.85;;
82952;SDS011;74888;40.196;44.560;2023-12-28T07:54:34;18.75;;;7.68;;
82952;SDS011;74888;40.196;44.560;2023-12-28T07:57:00;18.42;;;7.38;;
82952;SDS011;74888;40.196;44.560;2023-12-28T07:59:26;18.25;;;6.65;;
82952;SDS011;74888;40.196;44.560;2023-12-28T08:01:51;19.33;;;8.50;;
82952;SDS011;74888;40.196;44.560;2023-12-28T08:04:17;14.68;;;6.38;;
82952;SDS011;74888;40.196;44.560;2023-12-28T08:06:42;16.35;;;6.55;;
82952;SDS011;74888;40.196;44.560;2023-12-28T08:09:08;23.15;;;7.28;;
82952;SDS011;74888;40.196;44.560;2023-12-28T08:11:36;15.13;;;5.82;;
82952;SDS011;74888;40.196;44.560;2023-12-28T08:14:01;14.68;;;6.43;;
82952;SDS011;74888;40.196;44.560;2023-12-28T08:16:27;12.02;;;6.07;;
82952;SDS011;74888;40.196;44.560;2023-12-28T08:18:53;21.70;;;8.23;;
82952;SDS011;74888;40.196;44.560;2023-12-28T08:21:25;41.25;;;10.18;;
82952;SDS011;74888;40.196;44.560;2023-12-28T08:23:51;20.50;;;8.52;;
82952;SDS011;74888;40.196;44.560;2023-12-28T08:26:19;38.05;;;11.95;;
82952;SDS011;74888;40.196;44.560;2023-12-28T08:28:45;21.80;;;9.73;;
82952;SDS011;74888;40.196;44.560;2023-12-28T08:31:13;23.40;;;9.75;;
82952;SDS011;74888;40.196;44.560;2023-12-28T08:33:41;24.55;;;8.80;;
82952;SDS011;74888;40.196;44.560;2023-12-28T08:36:08;19.23;;;10.15;;
82952;SDS011;74888;40.196;44.560;2023-12-28T08:38:36;24.67;;;11.60;;
82952;SDS011;74888;40.196;44.560;2023-12-28T08:41:02;22.33;;;10.65;;
82952;SDS011;74888;40.196;44.560;2023-12-28T08:46:02;31.15;;;12.63;;
82952;SDS011;74888;40.196;44.560;2023-12-28T08:50:56;19.85;;;9.23;;
82952;SDS011;74888;40.196;44.560;2023-12-28T08:55:53;25.52;;;10.70;;
82952;SDS011;74888;40.196;44.560;2023-12-28T08:58:18;28.70;;;9.80;;
82952;SDS011;74888;40.196;44.560;2023-12-28T09:00:45;23.92;;;9.70;;
82952;SDS011;74888;40.196;44.560;2023-12-28T09:03:12;19.23;;;9.88;;
82952;SDS011;74888;40.196;44.560;2023-12-28T09:05:37;25.52;;;11.13;;
82952;SDS011;74888;40.196;44.560;2023-12-28T09:08:09;27.83;;;11.25;;
82952;SDS011;74888;40.196;44.560;2023-12-28T09:13:04;26.55;;;12.70;;
82952;SDS011;74888;40.196;44.560;2023-12-28T09:15:31;23.00;;;11.25;;
82952;SDS011;74888;40.196;44.560;2023-12-28T09:17:56;33.92;;;14.93;;
82952;SDS011;74888;40.196;44.560;2023-12-28T09:20:22;35.88;;;15.07;;
82952;SDS011;74888;40.196;44.560;2023-12-28T09:22:48;33.65;;;15.50;;
82952;SDS011;74888;40.196;44.560;2023-12-28T09:25:18;23.75;;;11.93;;
82952;SDS011;74888;40.196;44.560;2023-12-28T09:27:44;27.02;;;13.07;;
82952;SDS011;74888;40.196;44.560;2023-12-28T09:32:39;29.58;;;13.55;;
82952;SDS011;74888;40.196;44.560;2023-12-28T09:35:05;28.02;;;12.98;;
82952;SDS011;74888;40.196;44.560;2023-12-28T09:37:31;31.00;;;12.95;;
82952;SDS011;74888;40.196;44.560;2023-12-28T09:40:04;21.90;;;11.23;;
82952;SDS011;74888;40.196;44.560;2023-12-28T09:42:37;25.85;;;10.57;;
82952;SDS011;74888;40.196;44.560;2023-12-28T09:45:12;23.98;;;10.95;;
82952;SDS011;74888;40.196;44.560;2023-12-28T09:47:40;23.83;;;12.10;;
82952;SDS011;74888;40.196;44.560;2023-12-28T09:50:08;22.23;;;11.48;;
82952;SDS011;74888;40.196;44.560;2023-12-28T09:52:34;29.83;;;12.98;;
82952;SDS011;74888;40.196;44.560;2023-12-28T09:54:59;25.70;;;12.65;;
82952;SDS011;74888;40.196;44.560;2023-12-28T09:57:25;33.33;;;14.23;;
82952;SDS011;74888;40.196;44.560;2023-12-28T09:59:52;24.77;;;13.00;;
82952;SDS011;74888;40.196;44.560;2023-12-28T10:02:18;24.08;;;11.23;;
82952;SDS011;74888;40.196;44.560;2023-12-28T10:04:46;24.05;;;11.00;;
82952;SDS011;74888;40.196;44.560;2023-12-28T10:07:14;25.08;;;10.80;;
82952;SDS011;74888;40.196;44.560;2023-12-28T10:09:42;18.25;;;9.18;;
82952;SDS011;74888;40.196;44.560;2023-12-28T10:12:08;33.83;;;12.45;;
82952;SDS011;74888;40.196;44.560;2023-12-28T10:14:36;17.15;;;9.27;;
82952;SDS011;74888;40.196;44.560;2023-12-28T10:17:02;19.08;;;8.90;;
82952;SDS011;74888;40.196;44.560;2023-12-28T10:19:28;19.02;;;8.80;;
82952;SDS011;74888;40.196;44.560;2023-12-28T10:21:56;18.67;;;8.40;;
82952;SDS011;74888;40.196;44.560;2023-12-28T10:24:22;21.35;;;9.80;;
82952;SDS011;74888;40.196;44.560;2023-12-28T10:29:30;26.35;;;10.55;;
82952;SDS011;74888;40.196;44.560;2023-12-28T10:31:58;25.00;;;9.40;;
82952;SDS011;74888;40.196;44.560;2023-12-28T10:34:27;20.05;;;8.13;;
82952;SDS011;74888;40.196;44.560;2023-12-28T10:36:53;20.35;;;8.82;;
82952;SDS011;74888;40.196;44.560;2023-12-28T10:39:20;14.65;;;7.30;;
82952;SDS011;74888;40.196;44.560;2023-12-28T10:41:50;14.02;;;6.68;;
82952;SDS011;74888;40.196;44.560;2023-12-28T10:44:23;19.63;;;6.75;;
82952;SDS011;74888;40.196;44.560;2023-12-28T10:46:54;18.38;;;7.55;;
82952;SDS011;74888;40.196;44.560;2023-12-28T10:52:03;20.88;;;5.38;;
82952;SDS011;74888;40.196;44.560;2023-12-28T10:54:41;16.30;;;8.38;;
82952;SDS011;74888;40.196;44.560;2023-12-28T10:57:22;16.73;;;7.22;;
82952;SDS011;74888;40.196;44.560;2023-12-28T11:00:00;16.92;;;8.57;;
82952;SDS011;74888;40.196;44.560;2023-12-28T11:02:45;19.98;;;8.00;;
82952;SDS011;74888;40.196;44.560;2023-12-28T11:05:19;22.42;;;8.82;;
82952;SDS011;74888;40.196;44.560;2023-12-28T11:07:45;14.75;;;5.93;;
82952;SDS011;74888;40.196;44.560;2023-12-28T11:10:13;14.57;;;5.70;;
82952;SDS011;74888;40.196;44.560;2023-12-28T11:12:39;10.95;;;4.75;;
82952;SDS011;74888;40.196;44.560;2023-12-28T11:15:06;9.10;;;4.05;;
82952;SDS011;74888;40.196;44.560;2023-12-28T11:17:33;11.30;;;4.25;;
82952;SDS011;74888;40.196;44.560;2023-12-28T11:20:02;12.95;;;4.22;;
82952;SDS011;74888;40.196;44.560;2023-12-28T11:22:30;11.73;;;5.07;;
82952;SDS011;74888;40.196;44.560;2023-12-28T11:25:02;16.45;;;5.80;;
82952;SDS011;74888;40.196;44.560;2023-12-28T11:27:38;13.75;;;5.50;;
82952;SDS011;74888;40.196;44.560;2023-12-28T11:30:04;15.13;;;5.88;;
82952;SDS011;74888;40.196;44.560;2023-12-28T11:35:06;13.18;;;5.50;;
82952;SDS011;74888;40.196;44.560;2023-12-28T11:37:36;15.40;;;5.97;;
82952;SDS011;74888;40.196;44.560;2023-12-28T11:40:10;12.75;;;5.25;;
82952;SDS011;74888;40.196;44.560;2023-12-28T11:42:37;12.45;;;5.65;;
82952;SDS011;74888;40.196;44.560;2023-12-28T11:45:18;14.82;;;5.32;;
82952;SDS011;74888;40.196;44.560;2023-12-28T11:47:44;25.25;;;7.00;;
82952;SDS011;74888;40.196;44.560;2023-12-28T11:50:12;16.48;;;6.28;;
82952;SDS011;74888;40.196;44.560;2023-12-28T11:52:39;11.80;;;4.90;;
82952;SDS011;74888;40.196;44.560;2023-12-28T11:55:05;10.48;;;4.30;;
82952;SDS011;74888;40.196;44.560;2023-12-28T12:05:01;8.63;;;3.92;;
82952;SDS011;74888;40.196;44.560;2023-12-28T12:07:27;12.05;;;3.85;;
82952;SDS011;74888;40.196;44.560;2023-12-28T12:10:00;11.35;;;4.40;;
82952;SDS011;74888;40.196;44.560;2023-12-28T12:12:26;10.80;;;4.43;;
82952;SDS011;74888;40.196;44.560;2023-12-28T12:14:56;11.25;;;4.88;;
82952;SDS011;74888;40.196;44.560;2023-12-28T12:17:33;9.82;;;4.88;;
82952;SDS011;74888;40.196;44.560;2023-12-28T12:19:59;14.27;;;5.03;;
82952;SDS011;74888;40.196;44.560;2023-12-28T12:22:31;11.30;;;4.72;;
82952;SDS011;74888;40.196;44.560;2023-12-28T12:24:57;13.77;;;4.35;;
82952;SDS011;74888;40.196;44.560;2023-12-28T12:27:28;10.95;;;4.68;;
82952;SDS011;74888;40.196;44.560;2023-12-28T12:29:56;12.00;;;5.20;;
82952;SDS011;74888;40.196;44.560;2023-12-28T12:32:22;7.45;;;2.65;;
82952;SDS011;74888;40.196;44.560;2023-12-28T12:34:50;8.65;;;1.92;;
82952;SDS011;74888;40.196;44.560;2023-12-28T12:37:16;9.13;;;2.90;;
82952;SDS011;74888;40.196;44.560;2023-12-28T12:39:43;28.00;;;3.47;;
82952;SDS011;74888;40.196;44.560;2023-12-28T12:42:13;13.00;;;2.72;;
82952;SDS011;74888;40.196;44.560;2023-12-28T12:44:39;15.10;;;2.00;;
82952;SDS011;74888;40.196;44.560;2023-12-28T12:47:06;9.48;;;2.10;;
82952;SDS011;74888;40.196;44.560;2023-12-28T12:49:32;7.78;;;1.70;;
82952;SDS011;74888;40.196;44.560;2023-12-28T12:51:58;7.18;;;2.08;;
82952;SDS011;74888;40.196;44.560;2023-12-28T12:54:24;11.98;;;2.20;;
82952;SDS011;74888;40.196;44.560;2023-12-28T12:56:52;8.27;;;2.42;;
82952;SDS011;74888;40.196;44.560;2023-12-28T12:59:24;9.32;;;2.03;;
82952;SDS011;74888;40.196;44.560;2023-12-28T13:01:53;12.98;;;2.40;;
82952;SDS011;74888;40.196;44.560;2023-12-28T13:04:20;11.18;;;1.85;;
82952;SDS011;74888;40.196;44.560;2023-12-28T13:06:46;23.05;;;1.80;;
82952;SDS011;74888;40.196;44.560;2023-12-28T13:09:12;6.80;;;1.20;;
82952;SDS011;74888;40.196;44.560;2023-12-28T13:11:39;6.93;;;1.20;;
82952;SDS011;74888;40.196;44.560;2023-12-28T13:14:08;6.53;;;1.38;;
82952;SDS011;74888;40.196;44.560;2023-12-28T13:16:34;4.18;;;1.02;;
82952;SDS011;74888;40.196;44.560;2023-12-28T13:21:29;6.60;;;1.35;;
82952;SDS011;74888;40.196;44.560;2023-12-28T13:23:55;8.25;;;1.40;;
82952;SDS011;74888;40.196;44.560;2023-12-28T13:26:24;4.03;;;1.20;;
82952;SDS011;74888;40.196;44.560;2023-12-28T13:28:50;6.90;;;1.38;;
82952;SDS011;74888;40.196;44.560;2023-12-28T13:31:16;6.43;;;1.17;;
82952;SDS011;74888;40.196;44.560;2023-12-28T13:33:43;9.02;;;1.60;;
82952;SDS011;74888;40.196;44.560;2023-12-28T13:36:10;7.95;;;1.63;;
82952;SDS011;74888;40.196;44.560;2023-12-28T13:38:35;6.65;;;1.80;;
82952;SDS011;74888;40.196;44.560;2023-12-28T13:41:01;10.23;;;2.10;;
82952;SDS011;74888;40.196;44.560;2023-12-28T13:43:29;6.60;;;1.10;;
82952;SDS011;74888;40.196;44.560;2023-12-28T13:45:54;8.05;;;2.10;;
82952;SDS011;74888;40.196;44.560;2023-12-28T13:48:20;9.27;;;1.27;;
82952;SDS011;74888;40.196;44.560;2023-12-28T13:50:46;6.10;;;1.42;;
82952;SDS011;74888;40.196;44.560;2023-12-28T13:53:11;7.53;;;1.92;;
82952;SDS011;74888;40.196;44.560;2023-12-28T13:55:37;7.38;;;1.73;;
82952;SDS011;74888;40.196;44.560;2023-12-28T13:58:03;15.50;;;1.80;;
82952;SDS011;74888;40.196;44.560;2023-12-28T14:00:29;13.27;;;3.15;;
82952;SDS011;74888;40.196;44.560;2023-12-28T14:03:01;7.43;;;1.42;;
82952;SDS011;74888;40.196;44.560;2023-12-28T14:05:28;11.23;;;2.03;;
82952;SDS011;74888;40.196;44.560;2023-12-28T14:07:54;8.82;;;1.92;;
82952;SDS011;74888;40.196;44.560;2023-12-28T14:10:20;12.82;;;2.10;;
82952;SDS011;74888;40.196;44.560;2023-12-28T14:12:46;9.88;;;3.78;;
82952;SDS011;74888;40.196;44.560;2023-12-28T14:15:12;7.82;;;2.78;;
82952;SDS011;74888;40.196;44.560;2023-12-28T14:17:40;9.35;;;1.98;;
82952;SDS011;74888;40.196;44.560;2023-12-28T14:20:06;4.55;;;1.70;;
82952;SDS011;74888;40.196;44.560;2023-12-28T14:22:35;8.68;;;2.03;;
82952;SDS011;74888;40.196;44.560;2023-12-28T14:25:02;10.98;;;1.98;;
82952;SDS011;74888;40.196;44.560;2023-12-28T14:27:28;12.93;;;7.35;;
82952;SDS011;74888;40.196;44.560;2023-12-28T14:30:03;4.63;;;1.20;;
82952;SDS011;74888;40.196;44.560;2023-12-28T14:32:36;7.30;;;1.42;;
82952;SDS011;74888;40.196;44.560;2023-12-28T14:35:02;14.85;;;3.58;;
82952;SDS011;74888;40.196;44.560;2023-12-28T14:37:28;28.27;;;11.50;;
82952;SDS011;74888;40.196;44.560;2023-12-28T14:40:00;3.22;;;1.00;;
82952;SDS011;74888;40.196;44.560;2023-12-28T14:42:31;5.00;;;1.10;;
82952;SDS011;74888;40.196;44.560;2023-12-28T14:44:59;4.07;;;1.33;;
82952;SDS011;74888;40.196;44.560;2023-12-28T14:49:57;17.20;;;4.80;;
82952;SDS011;74888;40.196;44.560;2023-12-28T14:52:28;7.97;;;3.13;;
82952;SDS011;74888;40.196;44.560;2023-12-28T14:54:56;126.28;;;9.88;;
82952;SDS011;74888;40.196;44.560;2023-12-28T14:57:29;30.45;;;14.00;;
82952;SDS011;74888;40.196;44.560;2023-12-28T14:59:54;13.82;;;2.58;;
82952;SDS011;74888;40.196;44.560;2023-12-28T15:02:20;22.10;;;7.28;;
82952;SDS011;74888;40.196;44.560;2023-12-28T15:07:21;28.63;;;10.07;;
82952;SDS011;74888;40.196;44.560;2023-12-28T15:09:52;12.32;;;3.90;;
82952;SDS011;74888;40.196;44.560;2023-12-28T15:12:21;10.57;;;2.00;;
82952;SDS011;74888;40.196;44.560;2023-12-28T15:14:47;9.27;;;2.00;;
82952;SDS011;74888;40.196;44.560;2023-12-28T15:17:14;10.18;;;1.73;;
82952;SDS011;74888;40.196;44.560;2023-12-28T15:19:40;11.48;;;1.75;;
82952;SDS011;74888;40.196;44.560;2023-12-28T15:24:35;25.27;;;7.78;;
82952;SDS011;74888;40.196;44.560;2023-12-28T15:27:08;6.60;;;1.90;;
82952;SDS011;74888;40.196;44.560;2023-12-28T15:29:33;16.25;;;4.10;;
82952;SDS011;74888;40.196;44.560;2023-12-28T15:32:00;13.38;;;4.47;;
82952;SDS011;74888;40.196;44.560;2023-12-28T15:34:26;16.00;;;5.05;;
82952;SDS011;74888;40.196;44.560;2023-12-28T15:36:51;8.35;;;1.85;;
82952;SDS011;74888;40.196;44.560;2023-12-28T15:39:18;12.00;;;3.45;;
82952;SDS011;74888;40.196;44.560;2023-12-28T15:41:45;4.40;;;1.13;;
82952;SDS011;74888;40.196;44.560;2023-12-28T15:44:12;8.70;;;1.77;;